Time;durP1;ratioP1;P1;durP2;ratioP2;P2;SDS_P1;SDS_P2;PMS_P1;PMS_P2;Temp;Humidity;BMP_temperature;BMP_pressure;BME280_temperature;BME280_humidity;BME280_pressure;Samples;Min_cycle;Max_cycle;Signal;HPM_P1;HPM_P2
2021/07/04 00:01:36;;;;;;;19.67;12.45;;;24.90;56.10;;;;;;6200002;28;83867;-71
2021/07/04 00:04:36;;;;;;;18.73;12.52;;;24.90;56.10;;;;;;6193068;28;84184;-71
2021/07/04 00:07:41;;;;;;;23.05;13.48;;;24.90;56.20;;;;;;6194550;28;83294;-71
2021/07/04 00:10:41;;;;;;;18.40;11.85;;;24.90;55.90;;;;;;6188713;28;84193;-69
2021/07/04 00:13:42;;;;;;;22.70;12.75;;;24.90;56.10;;;;;;6193359;28;84315;-68
2021/07/04 00:16:42;;;;;;;26.23;12.82;;;24.90;56.30;;;;;;6202493;28;83027;-69
2021/07/04 00:19:43;;;;;;;18.70;12.10;;;24.90;56.30;;;;;;6196221;28;86161;-69
2021/07/04 00:22:43;;;;;;;20.92;13.18;;;24.80;56.00;;;;;;6198397;28;83070;-68
2021/07/04 00:25:44;;;;;;;23.17;13.07;;;24.80;56.00;;;;;;6201398;28;84388;-69
2021/07/04 00:28:44;;;;;;;21.58;13.73;;;24.80;56.00;;;;;;6190752;28;82912;-69
2021/07/04 00:31:45;;;;;;;23.02;13.90;;;24.80;56.20;;;;;;6201545;28;83757;-69
2021/07/04 00:34:45;;;;;;;20.25;12.55;;;24.70;55.90;;;;;;6192803;28;83162;-67
2021/07/04 00:37:46;;;;;;;27.45;13.65;;;24.80;56.10;;;;;;6195087;28;85230;-68
2021/07/04 00:40:46;;;;;;;21.65;14.07;;;24.80;55.90;;;;;;6195590;28;83423;-67
2021/07/04 00:43:48;;;;;;;22.92;13.20;;;24.80;55.80;;;;;;6195352;28;83318;-67
2021/07/04 00:46:49;;;;;;;18.83;12.93;;;24.70;55.70;;;;;;6193621;28;83138;-68
2021/07/04 00:49:49;;;;;;;19.00;11.98;;;24.70;55.60;;;;;;6195292;28;85614;-68
2021/07/04 00:52:50;;;;;;;21.17;12.45;;;24.70;55.50;;;;;;6198163;28;82749;-69
2021/07/04 00:55:51;;;;;;;20.70;11.82;;;24.70;55.40;;;;;;6197806;28;82773;-68
2021/07/04 00:58:52;;;;;;;20.23;13.32;;;24.70;55.50;;;;;;6192300;28;85435;-68
2021/07/04 01:01:58;;;;;;;19.58;12.73;;;24.70;55.30;;;;;;6198577;28;84691;-68
2021/07/04 01:04:58;;;;;;;17.30;11.73;;;24.70;55.40;;;;;;6190144;28;85600;-68
2021/07/04 01:07:59;;;;;;;22.30;13.23;;;24.60;55.20;;;;;;6198186;28;82860;-68
2021/07/04 01:11:02;;;;;;;17.00;11.95;;;24.60;55.00;;;;;;6192583;28;83213;-68
2021/07/04 01:14:06;;;;;;;36.42;14.60;;;24.50;55.00;;;;;;6192953;28;89720;-68
2021/07/04 01:17:06;;;;;;;21.02;12.48;;;24.50;55.10;;;;;;6201076;28;82823;-68
2021/07/04 01:20:07;;;;;;;21.70;13.30;;;24.50;55.00;;;;;;6197443;28;85564;-69
2021/07/04 01:23:08;;;;;;;21.45;12.20;;;24.50;55.10;;;;;;6200915;28;82956;-69
2021/07/04 01:26:11;;;;;;;19.45;11.60;;;24.40;55.10;;;;;;6200044;28;85766;-68
2021/07/04 01:29:11;;;;;;;20.05;12.15;;;24.50;55.10;;;;;;6201404;28;83105;-68
2021/07/04 01:32:13;;;;;;;17.65;11.23;;;24.50;55.10;;;;;;6194356;28;83322;-69
2021/07/04 01:35:14;;;;;;;24.15;13.18;;;24.40;55.00;;;;;;6193876;28;85841;-68
2021/07/04 01:38:15;;;;;;;18.00;11.40;;;24.50;55.00;;;;;;6189429;28;84186;-68
2021/07/04 01:41:15;;;;;;;20.42;12.93;;;24.50;54.80;;;;;;6195590;28;85927;-68
2021/07/04 01:44:16;;;;;;;21.73;12.85;;;24.50;54.70;;;;;;6189077;28;84520;-68
2021/07/04 01:47:17;;;;;;;18.58;12.05;;;24.50;54.30;;;;;;6193176;28;84035;-68
2021/07/04 01:50:17;;;;;;;21.30;11.85;;;24.40;54.50;;;;;;6189195;28;85561;-68
2021/07/04 01:53:18;;;;;;;22.50;12.13;;;24.40;54.30;;;;;;6194584;28;83423;-68
2021/07/04 01:56:22;;;;;;;26.00;12.10;;;24.40;54.20;;;;;;6194115;28;86105;-69
2021/07/04 01:59:27;;;;;;;21.73;11.68;;;24.30;54.30;;;;;;6204220;28;86037;-68
2021/07/04 02:02:51;;;;;;;26.67;13.48;;;24.30;54.40;;;;;;6203626;28;83944;-68
2021/07/04 02:06:02;;;;;;;19.52;12.57;;;24.30;54.10;;;;;;6203903;28;89439;-69
2021/07/04 02:09:03;;;;;;;21.67;12.40;;;24.20;54.00;;;;;;6197513;28;85881;-68
2021/07/04 02:12:05;;;;;;;21.23;11.57;;;24.20;54.10;;;;;;6203994;28;83949;-69
2021/07/04 02:15:09;;;;;;;18.63;11.60;;;24.20;54.20;;;;;;6183478;28;85855;-69
2021/07/04 02:18:19;;;;;;;21.92;13.85;;;24.20;54.00;;;;;;6178573;28;83362;-69
2021/07/04 02:21:37;;;;;;;16.35;11.57;;;24.10;53.90;;;;;;6194178;28;83259;-68
2021/07/04 02:24:43;;;;;;;22.00;11.00;;;24.10;53.90;;;;;;6195169;28;84059;-68
2021/07/04 02:28:07;;;;;;;16.63;11.55;;;24.10;53.70;;;;;;6190943;28;83823;-68
2021/07/04 02:31:08;;;;;;;19.50;11.73;;;24.10;53.70;;;;;;6198734;28;84872;-69
2021/07/04 02:34:09;;;;;;;22.02;11.57;;;24.00;53.60;;;;;;6201733;28;83054;-69
2021/07/04 02:37:17;;;;;;;18.33;12.30;;;24.10;53.40;;;;;;6201563;28;86001;-69
2021/07/04 02:40:27;;;;;;;17.70;11.10;;;24.10;53.40;;;;;;6195918;28;85498;-69
2021/07/04 02:43:32;;;;;;;18.70;11.13;;;24.10;53.50;;;;;;6205005;28;83020;-69
2021/07/04 02:46:38;;;;;;;17.30;11.25;;;24.00;53.50;;;;;;6198932;28;85500;-70
2021/07/04 02:49:38;;;;;;;17.52;11.23;;;24.10;53.50;;;;;;6201036;28;85256;-69
2021/07/04 02:52:43;;;;;;;19.67;11.20;;;24.10;53.40;;;;;;6202853;28;85436;-69
2021/07/04 02:55:44;;;;;;;19.42;11.55;;;24.00;53.40;;;;;;6194018;28;85795;-69
2021/07/04 02:58:47;;;;;;;17.65;10.85;;;24.10;53.60;;;;;;6218895;28;86019;-68
2021/07/04 03:01:48;;;;;;;17.08;10.98;;;24.10;53.70;;;;;;6197860;28;83948;-69
2021/07/04 03:04:49;;;;;;;18.60;11.48;;;24.10;53.70;;;;;;6202668;28;85823;-70
2021/07/04 03:07:51;;;;;;;18.75;12.07;;;24.00;53.70;;;;;;6194749;28;86282;-69
2021/07/04 03:10:52;;;;;;;18.75;11.98;;;24.10;53.60;;;;;;6202209;28;83519;-70
2021/07/04 03:14:02;;;;;;;22.15;12.20;;;24.00;53.80;;;;;;6200161;28;84161;-70
2021/07/04 03:17:02;;;;;;;19.38;11.43;;;24.10;53.90;;;;;;6202657;28;83278;-70
2021/07/04 03:20:04;;;;;;;15.98;10.20;;;24.00;54.00;;;;;;6201504;28;85606;-69
2021/07/04 03:23:05;;;;;;;15.10;10.40;;;24.00;53.80;;;;;;6202016;28;85675;-69
2021/07/04 03:26:06;;;;;;;15.27;10.65;;;24.10;53.90;;;;;;6199398;28;84480;-68
2021/07/04 03:29:07;;;;;;;16.80;10.77;;;24.10;53.90;;;;;;6197826;28;85366;-67
2021/07/04 03:32:15;;;;;;;16.08;10.82;;;24.10;53.80;;;;;;6199556;28;84344;-68
2021/07/04 03:35:18;;;;;;;18.25;11.55;;;24.10;53.70;;;;;;6200425;28;85728;-71
2021/07/04 03:38:22;;;;;;;18.50;10.85;;;24.10;53.50;;;;;;6200244;28;85342;-71
2021/07/04 03:41:24;;;;;;;18.85;10.63;;;24.10;53.40;;;;;;6197865;28;85467;-71
2021/07/04 03:44:25;;;;;;;21.48;11.20;;;24.10;53.50;;;;;;6202275;28;84045;-70
2021/07/04 03:47:26;;;;;;;21.45;11.88;;;24.10;53.60;;;;;;6199194;28;85380;-70
2021/07/04 03:50:28;;;;;;;19.05;10.90;;;24.10;53.60;;;;;;6201384;28;85835;-71
2021/07/04 03:53:29;;;;;;;17.25;10.98;;;24.10;53.70;;;;;;6199559;28;85193;-70
2021/07/04 03:56:32;;;;;;;17.10;10.40;;;24.10;53.90;;;;;;6176272;28;85586;-69
2021/07/04 03:59:37;;;;;;;16.77;10.93;;;24.20;54.10;;;;;;6190680;28;84998;-68
2021/07/04 04:02:38;;;;;;;18.35;10.75;;;24.20;54.00;;;;;;6198568;28;83053;-68
2021/07/04 04:05:39;;;;;;;13.98;10.18;;;24.20;53.90;;;;;;6201773;28;84082;-68
2021/07/04 04:08:40;;;;;;;15.00;10.60;;;24.30;54.20;;;;;;6202273;28;85924;-71
2021/07/04 04:11:41;;;;;;;17.90;10.82;;;24.30;54.20;;;;;;6194816;28;84843;-68
2021/07/04 04:14:47;;;;;;;;;;;24.30;54.10;;;;;;6180372;28;84280;-68
2021/07/04 04:17:48;;;;;;;16.92;10.80;;;24.30;54.30;;;;;;6209139;28;84047;-67
2021/07/04 04:20:56;;;;;;;21.55;12.13;;;24.30;54.00;;;;;;6196524;28;82941;-66
2021/07/04 04:23:56;;;;;;;20.50;12.90;;;24.30;53.90;;;;;;6199815;28;85691;-67
2021/07/04 04:26:58;;;;;;;23.27;12.65;;;24.30;53.80;;;;;;6193172;28;86008;-68
2021/07/04 04:29:59;;;;;;;19.50;11.63;;;24.30;53.70;;;;;;6199741;28;85886;-70
2021/07/04 04:32:59;;;;;;;15.40;10.30;;;24.30;53.80;;;;;;6195258;28;84004;-68
2021/07/04 04:36:01;;;;;;;21.27;11.82;;;24.40;54.10;;;;;;6197519;28;85835;-69
2021/07/04 04:39:01;;;;;;;20.90;10.90;;;24.40;54.20;;;;;;6190990;28;88203;-68
2021/07/04 04:42:02;;;;;;;18.73;11.80;;;24.50;54.20;;;;;;6192219;28;84696;-69
2021/07/04 04:45:02;;;;;;;20.13;11.50;;;24.50;54.20;;;;;;6192819;28;84900;-70
2021/07/04 04:48:03;;;;;;;20.02;12.38;;;24.50;54.30;;;;;;6196762;28;83743;-69
2021/07/04 04:51:05;;;;;;;22.80;11.43;;;24.40;54.20;;;;;;6197165;28;84422;-71
2021/07/04 04:54:05;;;;;;;148.20;56.00;;;24.40;54.20;;;;;;6190522;28;83144;-70
2021/07/04 04:57:06;;;;;;;294.05;107.70;;;24.40;54.60;;;;;;6191924;28;82983;-67
2021/07/04 05:00:06;;;;;;;271.77;104.32;;;24.40;54.60;;;;;;6195055;28;85767;-71
2021/07/04 05:03:07;;;;;;;191.50;79.60;;;24.40;54.50;;;;;;6198496;28;85602;-71
2021/07/04 05:06:07;;;;;;;262.27;100.38;;;24.40;54.40;;;;;;6194373;28;85669;-69
2021/07/04 05:09:08;;;;;;;341.58;125.25;;;24.40;54.60;;;;;;6185906;28;85927;-70
2021/07/04 05:12:09;;;;;;;414.73;149.00;;;24.40;54.40;;;;;;6187261;28;86545;-70
2021/07/04 05:15:09;;;;;;;341.58;129.73;;;24.50;54.70;;;;;;6185401;28;86437;-70
2021/07/04 05:18:10;;;;;;;275.23;105.40;;;24.40;54.30;;;;;;6191880;28;86399;-69
2021/07/04 05:21:10;;;;;;;222.25;83.20;;;24.40;54.40;;;;;;6195771;28;86367;-68
2021/07/04 05:24:12;;;;;;;164.98;64.35;;;24.40;54.30;;;;;;6199359;28;85593;-71
2021/07/04 05:27:12;;;;;;;139.50;54.88;;;24.40;54.10;;;;;;6194894;28;83488;-69
2021/07/04 05:30:13;;;;;;;110.65;44.55;;;24.40;54.20;;;;;;6198684;28;84108;-70
2021/07/04 05:33:13;;;;;;;86.30;35.10;;;24.40;54.30;;;;;;6192821;28;83976;-71
2021/07/04 05:36:14;;;;;;;71.75;29.83;;;24.40;54.10;;;;;;6201905;28;84264;-69
2021/07/04 05:39:14;;;;;;;62.67;26.60;;;24.40;54.20;;;;;;6198441;28;83437;-70
2021/07/04 05:42:15;;;;;;;58.30;24.60;;;24.40;54.60;;;;;;6194582;28;84222;-71
2021/07/04 05:45:15;;;;;;;49.78;23.90;;;24.50;54.40;;;;;;6190123;28;83631;-70
2021/07/04 05:48:16;;;;;;;38.40;21.25;;;24.50;54.30;;;;;;6203928;28;82863;-72
2021/07/04 05:51:16;;;;;;;39.13;18.42;;;24.50;54.30;;;;;;6212101;27;83960;-72
2021/07/04 05:54:17;;;;;;;34.75;17.25;;;24.60;54.30;;;;;;6202244;28;84278;-71
2021/07/04 05:57:17;;;;;;;34.00;17.58;;;24.60;54.40;;;;;;6191274;28;84219;-69
2021/07/04 06:00:18;;;;;;;28.67;15.45;;;24.60;54.90;;;;;;6201685;28;83648;-69
2021/07/04 06:03:18;;;;;;;34.17;14.63;;;24.60;55.00;;;;;;6204206;28;83710;-70
2021/07/04 06:06:19;;;;;;;22.77;13.27;;;24.60;54.80;;;;;;6203710;28;83074;-71
2021/07/04 06:09:19;;;;;;;23.42;13.70;;;24.60;54.70;;;;;;6199514;28;83169;-69
2021/07/04 06:12:20;;;;;;;20.27;12.90;;;24.70;54.70;;;;;;6199169;28;83262;-69
2021/07/04 06:15:20;;;;;;;21.45;12.90;;;24.70;54.80;;;;;;6200400;28;83617;-70
2021/07/04 06:18:21;;;;;;;16.60;11.45;;;24.70;54.70;;;;;;6196653;28;82879;-69
2021/07/04 06:21:21;;;;;;;27.88;12.73;;;24.70;54.80;;;;;;6190410;28;84242;-70
2021/07/04 06:24:22;;;;;;;20.70;11.23;;;24.70;55.10;;;;;;6192364;28;83240;-68
2021/07/04 06:27:23;;;;;;;21.10;11.48;;;24.60;54.70;;;;;;6193543;28;82964;-69
2021/07/04 06:30:23;;;;;;;22.48;12.10;;;24.70;54.80;;;;;;6200593;28;83641;-69
2021/07/04 06:33:24;;;;;;;18.40;11.13;;;24.80;54.80;;;;;;6197824;28;83176;-69
2021/07/04 06:36:24;;;;;;;22.02;11.32;;;24.70;55.20;;;;;;6186543;28;84225;-69
2021/07/04 06:39:25;;;;;;;19.95;10.48;;;24.70;55.10;;;;;;6189500;28;83510;-71
2021/07/04 06:42:25;;;;;;;14.73;10.65;;;24.80;55.40;;;;;;6195197;28;83370;-68
2021/07/04 06:45:26;;;;;;;17.30;10.25;;;24.80;55.20;;;;;;6194497;28;82881;-69
2021/07/04 06:48:26;;;;;;;18.02;10.13;;;24.80;55.50;;;;;;6196076;28;83631;-71
2021/07/04 06:51:27;;;;;;;19.92;10.25;;;24.90;55.50;;;;;;6203714;28;83864;-72
2021/07/04 06:54:27;;;;;;;19.60;10.60;;;24.90;55.50;;;;;;6203931;28;83039;-69
2021/07/04 06:57:28;;;;;;;21.73;9.70;;;24.90;55.60;;;;;;6205333;28;83531;-70
2021/07/04 07:00:29;;;;;;;18.95;9.52;;;24.90;56.10;;;;;;6198287;28;85724;-70
2021/07/04 07:03:29;;;;;;;15.15;10.52;;;24.90;56.10;;;;;;6194076;28;80148;-69
2021/07/04 07:06:30;;;;;;;20.25;9.30;;;24.90;56.10;;;;;;6194899;28;83246;-69
2021/07/04 07:09:30;;;;;;;18.13;10.13;;;24.90;55.80;;;;;;6193846;28;83935;-67
2021/07/04 07:12:31;;;;;;;12.00;8.77;;;24.90;55.60;;;;;;6195883;28;84011;-67
2021/07/04 07:15:31;;;;;;;14.50;9.75;;;25.00;55.60;;;;;;6199102;28;82863;-68
2021/07/04 07:18:32;;;;;;;13.48;9.32;;;25.00;55.20;;;;;;6194589;28;81911;-67
2021/07/04 07:21:33;;;;;;;17.35;9.52;;;25.00;56.70;;;;;;6195829;28;81485;-67
2021/07/04 07:24:34;;;;;;;35.58;10.90;;;25.10;55.70;;;;;;6193923;28;80928;-68
2021/07/04 07:27:34;;;;;;;15.35;9.88;;;25.00;55.30;;;;;;6198560;28;83459;-68
2021/07/04 07:30:37;;;;;;;27.85;10.55;;;25.00;55.10;;;;;;6193727;28;84315;-69
2021/07/04 07:33:38;;;;;;;20.48;10.98;;;25.00;55.20;;;;;;6187371;28;83470;-69
2021/07/04 07:36:40;;;;;;;19.05;10.65;;;24.90;55.70;;;;;;6203415;28;84417;-68
2021/07/04 07:39:40;;;;;;;16.30;9.75;;;25.00;55.40;;;;;;6201855;28;83925;-67
2021/07/04 07:42:41;;;;;;;16.90;10.30;;;25.00;55.30;;;;;;6201020;28;82970;-68
2021/07/04 07:45:45;;;;;;;13.60;9.18;;;24.90;55.30;;;;;;6201826;28;83761;-68
2021/07/04 07:48:46;;;;;;;16.60;9.60;;;25.00;55.00;;;;;;6197406;28;83122;-68
2021/07/04 07:52:06;;;;;;;17.60;9.57;;;25.00;55.60;;;;;;6195521;28;81255;-67
2021/07/04 07:55:11;;;;;;;15.63;9.10;;;25.00;55.10;;;;;;6192893;28;83533;-67
2021/07/04 07:58:12;;;;;;;12.35;8.98;;;25.00;55.20;;;;;;6196539;28;80727;-69
2021/07/04 08:01:13;;;;;;;16.80;8.95;;;25.00;55.30;;;;;;6195441;28;80471;-68
2021/07/04 08:04:13;;;;;;;12.32;8.63;;;25.00;54.60;;;;;;6197470;28;81405;-67
2021/07/04 08:07:14;;;;;;;15.43;8.07;;;25.00;54.60;;;;;;6194778;28;81441;-66
2021/07/04 08:10:14;;;;;;;13.95;8.40;;;25.00;54.20;;;;;;6194747;28;81717;-66
2021/07/04 08:13:15;;;;;;;16.38;8.88;;;25.00;54.00;;;;;;6205554;28;80541;-66
2021/07/04 08:16:17;;;;;;;13.05;7.95;;;25.10;53.80;;;;;;6197283;28;80967;-65
2021/07/04 08:19:17;;;;;;;14.63;8.10;;;25.10;53.90;;;;;;6208670;28;81871;-66
2021/07/04 08:22:18;;;;;;;14.27;8.00;;;25.10;54.00;;;;;;6177601;28;80870;-67
2021/07/04 08:25:18;;;;;;;16.05;8.63;;;25.10;54.30;;;;;;6197776;28;81995;-67
2021/07/04 08:28:19;;;;;;;33.05;8.50;;;25.10;54.00;;;;;;6196024;28;80368;-68
2021/07/04 08:31:19;;;;;;;12.75;8.20;;;25.20;54.20;;;;;;6204012;28;83534;-64
2021/07/04 08:34:20;;;;;;;15.05;7.78;;;25.10;53.90;;;;;;6199012;28;80690;-66
2021/07/04 08:37:20;;;;;;;11.43;8.02;;;25.10;53.90;;;;;;6207142;28;80870;-68
2021/07/04 08:40:21;;;;;;;12.43;8.05;;;25.20;54.20;;;;;;6199382;28;81264;-66
2021/07/04 08:43:21;;;;;;;12.20;7.45;;;25.20;53.70;;;;;;6194004;28;80695;-65
2021/07/04 08:46:22;;;;;;;14.55;7.75;;;25.20;54.30;;;;;;6186223;28;80801;-67
2021/07/04 08:49:22;;;;;;;11.85;7.35;;;25.20;53.50;;;;;;6194976;28;80854;-67
2021/07/04 08:52:23;;;;;;;13.90;6.90;;;25.20;53.10;;;;;;6195526;28;80706;-67
2021/07/04 08:55:24;;;;;;;12.40;6.63;;;25.20;53.70;;;;;;6195007;28;80514;-68
2021/07/04 08:58:24;;;;;;;13.90;7.85;;;25.30;53.50;;;;;;6192248;28;80263;-68
2021/07/04 09:01:25;;;;;;;11.07;7.10;;;25.20;53.30;;;;;;6193336;28;80557;-67
2021/07/04 09:04:26;;;;;;;15.05;6.85;;;25.30;54.00;;;;;;6194428;28;80388;-68
2021/07/04 09:07:26;;;;;;;10.48;6.97;;;25.30;53.30;;;;;;6194911;28;80833;-66
2021/07/04 09:10:28;;;;;;;10.32;7.13;;;25.30;52.60;;;;;;6194941;28;80803;-65
2021/07/04 09:13:29;;;;;;;15.63;7.13;;;25.30;52.30;;;;;;6195519;28;80291;-66
2021/07/04 09:16:29;;;;;;;14.43;7.95;;;25.30;52.00;;;;;;6196177;28;80536;-65
2021/07/04 09:19:30;;;;;;;9.25;7.25;;;25.30;52.10;;;;;;6190912;28;81151;-65
2021/07/04 09:22:31;;;;;;;14.73;7.28;;;25.30;52.30;;;;;;6192232;28;80418;-65
2021/07/04 09:25:31;;;;;;;15.15;7.32;;;25.30;52.50;;;;;;6194023;28;81485;-66
2021/07/04 09:28:32;;;;;;;13.15;6.43;;;25.30;52.80;;;;;;6201000;28;80674;-66
2021/07/04 09:31:32;;;;;;;11.90;6.35;;;25.30;52.70;;;;;;6202219;28;80823;-67
2021/07/04 09:34:33;;;;;;;17.15;6.45;;;25.30;52.40;;;;;;6203142;28;81992;-67
2021/07/04 09:37:33;;;;;;;9.23;6.70;;;25.40;52.10;;;;;;6199058;28;81609;-66
2021/07/04 09:40:34;;;;;;;12.10;7.78;;;25.30;51.80;;;;;;6209187;28;80483;-66
2021/07/04 09:43:34;;;;;;;12.73;7.30;;;25.30;51.50;;;;;;6195852;28;80632;-66
2021/07/04 09:46:35;;;;;;;10.70;7.03;;;25.30;51.40;;;;;;6195423;28;80260;-66
2021/07/04 09:49:35;;;;;;;13.40;6.95;;;25.40;51.60;;;;;;6207428;28;81620;-66
2021/07/04 09:52:36;;;;;;;11.45;7.38;;;25.40;51.90;;;;;;6199939;28;80619;-65
2021/07/04 09:55:36;;;;;;;15.07;7.32;;;25.40;51.60;;;;;;6207160;28;80364;-67
2021/07/04 09:58:37;;;;;;;14.93;7.60;;;25.40;51.90;;;;;;6193187;28;81861;-67
2021/07/04 10:01:38;;;;;;;12.02;7.53;;;25.40;51.20;;;;;;6201698;28;81584;-67
2021/07/04 10:04:41;;;;;;;9.38;6.63;;;25.50;52.10;;;;;;6202652;28;80703;-68
2021/07/04 10:07:44;;;;;;;10.52;7.55;;;25.50;51.20;;;;;;6199818;28;80697;-67
2021/07/04 10:10:45;;;;;;;10.65;7.70;;;25.50;50.60;;;;;;6198922;28;80760;-67
2021/07/04 10:13:45;;;;;;;12.80;8.10;;;25.40;52.10;;;;;;6199827;28;81290;-68
2021/07/04 10:16:46;;;;;;;11.30;7.18;;;25.50;52.40;;;;;;6201290;28;81169;-67
2021/07/04 10:19:46;;;;;;;15.70;8.13;;;25.50;52.10;;;;;;6199919;28;82152;-67
2021/07/04 10:22:47;;;;;;;11.70;7.93;;;25.50;52.30;;;;;;6200424;28;80697;-67
2021/07/04 10:25:48;;;;;;;13.02;7.20;;;25.50;51.60;;;;;;6199695;28;80990;-67
2021/07/04 10:28:48;;;;;;;11.55;7.85;;;25.50;50.40;;;;;;6199411;28;81832;-64
2021/07/04 10:31:49;;;;;;;12.07;7.00;;;25.50;50.50;;;;;;6200669;28;80511;-65
2021/07/04 10:34:51;;;;;;;13.13;6.88;;;25.50;50.90;;;;;;6201230;28;81047;-65
2021/07/04 10:37:51;;;;;;;9.55;6.90;;;25.60;50.90;;;;;;6197770;28;81169;-67
2021/07/04 10:40:52;;;;;;;11.82;6.57;;;25.50;50.50;;;;;;6200919;28;81548;-67
2021/07/04 10:43:52;;;;;;;9.60;6.78;;;25.60;50.60;;;;;;6200619;28;81350;-67
2021/07/04 10:46:53;;;;;;;9.80;6.15;;;25.60;50.70;;;;;;6199400;28;80908;-67
2021/07/04 10:49:53;;;;;;;12.45;6.70;;;25.60;50.30;;;;;;6198338;28;80856;-67
2021/07/04 10:52:54;;;;;;;11.50;6.55;;;25.60;50.30;;;;;;6197788;28;81586;-67
2021/07/04 10:55:54;;;;;;;16.65;6.78;;;25.70;50.40;;;;;;6199934;28;81040;-67
2021/07/04 10:58:55;;;;;;;12.45;6.30;;;25.60;49.20;;;;;;6196873;28;83650;-68
2021/07/04 11:01:56;;;;;;;8.52;5.60;;;25.60;49.20;;;;;;6200630;28;80871;-66
2021/07/04 11:04:57;;;;;;;10.38;6.15;;;25.60;49.00;;;;;;6199605;28;81343;-68
2021/07/04 11:07:57;;;;;;;9.90;5.47;;;25.70;49.30;;;;;;6198739;28;81343;-67
2021/07/04 11:10:59;;;;;;;11.30;5.78;;;25.60;49.30;;;;;;6200817;28;80613;-69
2021/07/04 11:13:59;;;;;;;8.32;6.20;;;25.70;50.30;;;;;;6198975;28;81264;-67
2021/07/04 11:17:00;;;;;;;10.25;6.40;;;25.60;49.60;;;;;;6202459;28;81162;-68
2021/07/04 11:20:00;;;;;;;10.60;5.78;;;25.60;49.90;;;;;;6196777;28;80490;-67
2021/07/04 11:23:01;;;;;;;11.10;6.20;;;25.60;49.50;;;;;;6197773;28;80531;-68
2021/07/04 11:26:01;;;;;;;10.05;6.90;;;25.60;50.60;;;;;;6207052;28;82835;-69
2021/07/04 11:29:02;;;;;;;20.08;6.22;;;25.60;50.80;;;;;;6207828;28;80138;-68
2021/07/04 11:32:02;;;;;;;9.98;5.40;;;25.60;50.00;;;;;;6197940;28;80618;-67
2021/07/04 11:35:03;;;;;;;9.32;5.80;;;25.70;49.50;;;;;;6199142;28;80320;-66
2021/07/04 11:38:03;;;;;;;9.57;5.90;;;25.60;50.00;;;;;;6196455;28;82108;-69
2021/07/04 11:41:04;;;;;;;9.85;5.43;;;25.70;48.70;;;;;;6207540;28;80505;-67
2021/07/04 11:44:04;;;;;;;7.45;5.88;;;25.70;49.30;;;;;;6196349;28;80407;-65
2021/07/04 11:47:05;;;;;;;11.05;5.95;;;25.70;48.90;;;;;;6195165;28;83360;-67
2021/07/04 11:50:05;;;;;;;6.68;5.13;;;25.70;48.50;;;;;;6200952;28;80331;-68
2021/07/04 11:53:06;;;;;;;7.45;5.43;;;25.70;47.90;;;;;;6199027;28;80730;-66
2021/07/04 11:56:06;;;;;;;6.15;4.80;;;25.60;47.30;;;;;;6198631;28;80649;-67
2021/07/04 11:59:07;;;;;;;9.80;5.68;;;25.70;47.10;;;;;;6195409;28;80442;-70
2021/07/04 12:02:07;;;;;;;6.38;5.28;;;25.70;46.40;;;;;;6197021;28;80443;-67
2021/07/04 12:05:08;;;;;;;6.45;4.50;;;25.70;46.10;;;;;;6197465;28;83170;-68
2021/07/04 12:08:08;;;;;;;6.45;4.65;;;25.80;46.50;;;;;;6194637;28;80620;-67
2021/07/04 12:11:09;;;;;;;7.57;5.68;;;25.80;46.80;;;;;;6199230;28;81354;-67
2021/07/04 12:14:09;;;;;;;7.28;4.65;;;25.80;46.40;;;;;;6194942;28;81417;-66
2021/07/04 12:17:10;;;;;;;5.55;4.55;;;25.80;46.10;;;;;;6209652;28;81792;-67
2021/07/04 12:20:10;;;;;;;8.82;5.07;;;25.80;46.60;;;;;;6208949;28;80416;-66
2021/07/04 12:23:12;;;;;;;6.05;4.70;;;25.80;46.70;;;;;;6196357;28;80905;-70
2021/07/04 12:26:13;;;;;;;6.78;4.93;;;25.80;46.70;;;;;;6201232;28;81588;-67
2021/07/04 12:29:13;;;;;;;7.78;5.70;;;25.80;46.10;;;;;;6194787;28;80496;-67
2021/07/04 12:32:14;;;;;;;6.75;5.60;;;25.80;46.10;;;;;;6201458;28;80963;-67
2021/07/04 12:35:14;;;;;;;10.27;5.72;;;25.80;45.70;;;;;;6206040;28;80737;-67
2021/07/04 12:38:15;;;;;;;7.13;5.57;;;25.80;45.20;;;;;;6204423;28;81492;-67
2021/07/04 12:41:15;;;;;;;6.50;5.47;;;25.80;45.40;;;;;;6201773;28;80852;-66
2021/07/04 12:44:16;;;;;;;7.32;5.40;;;25.80;45.60;;;;;;6193524;28;81014;-66
2021/07/04 12:47:21;;;;;;;7.75;5.30;;;25.80;46.30;;;;;;6169714;28;80457;-67
2021/07/04 12:50:21;;;;;;;5.95;5.10;;;25.70;46.70;;;;;;6174931;28;80273;-68
2021/07/04 12:53:22;;;;;;;8.73;4.53;;;25.80;47.00;;;;;;6191513;28;80210;-67
2021/07/04 12:56:23;;;;;;;7.70;5.10;;;25.80;46.80;;;;;;6179140;28;81214;-68
2021/07/04 12:59:24;;;;;;;6.20;4.85;;;25.70;46.00;;;;;;6182172;28;80839;-69
2021/07/04 13:02:24;;;;;;;6.95;4.82;;;25.80;46.20;;;;;;6173168;28;80544;-68
2021/07/04 13:05:25;;;;;;;6.93;5.47;;;25.70;46.20;;;;;;6171903;28;81000;-68
2021/07/04 13:08:25;;;;;;;8.43;5.35;;;25.70;46.70;;;;;;6170210;28;81240;-70
2021/07/04 13:11:26;;;;;;;7.47;5.25;;;25.80;46.20;;;;;;6176238;28;80885;-67
2021/07/04 13:14:26;;;;;;;7.03;4.70;;;25.80;45.80;;;;;;6180077;28;80462;-68
2021/07/04 13:17:27;;;;;;;6.85;4.80;;;25.70;46.20;;;;;;6177292;28;80459;-67
2021/07/04 13:20:28;;;;;;;7.63;5.53;;;25.70;46.20;;;;;;6170730;28;80604;-68
2021/07/04 13:23:28;;;;;;;6.40;4.82;;;25.70;46.20;;;;;;6171169;28;80510;-68
2021/07/04 13:26:29;;;;;;;7.75;5.13;;;25.70;46.40;;;;;;6172291;28;80503;-68
2021/07/04 13:29:29;;;;;;;7.25;5.43;;;25.80;46.50;;;;;;6173027;28;82738;-67
2021/07/04 13:32:30;;;;;;;6.35;5.22;;;25.80;45.70;;;;;;6177777;28;80804;-68
2021/07/04 13:35:31;;;;;;;5.68;5.05;;;25.90;46.10;;;;;;6170701;28;80681;-67
2021/07/04 13:38:31;;;;;;;11.20;5.97;;;25.90;46.10;;;;;;6169824;28;80713;-67
2021/07/04 13:41:32;;;;;;;8.80;5.80;;;25.90;45.30;;;;;;6171667;28;80595;-66
2021/07/04 13:44:32;;;;;;;7.68;5.32;;;25.90;44.70;;;;;;6168961;28;81707;-67
2021/07/04 13:47:33;;;;;;;8.20;5.20;;;25.90;44.80;;;;;;6173302;28;81008;-68
2021/07/04 13:50:33;;;;;;;5.97;5.10;;;25.90;44.50;;;;;;6177506;28;80406;-68
2021/07/04 13:53:35;;;;;;;5.90;5.25;;;25.90;44.70;;;;;;6175368;28;80903;-69
2021/07/04 13:56:36;;;;;;;8.93;6.00;;;25.90;44.90;;;;;;6189514;28;81410;-68
2021/07/04 13:59:36;;;;;;;8.10;5.25;;;25.90;45.20;;;;;;6188323;28;81219;-67
2021/07/04 14:02:37;;;;;;;7.57;5.15;;;25.80;45.40;;;;;;6188634;28;81666;-66
2021/07/04 14:05:37;;;;;;;7.20;5.68;;;25.90;45.20;;;;;;6181950;28;80817;-69
2021/07/04 14:08:38;;;;;;;9.00;4.97;;;25.90;45.30;;;;;;6175807;28;80798;-68
2021/07/04 14:11:38;;;;;;;6.82;5.30;;;25.90;45.60;;;;;;6178121;28;80457;-67
2021/07/04 14:14:39;;;;;;;7.43;5.25;;;25.90;46.00;;;;;;6175255;28;80295;-67
2021/07/04 14:17:39;;;;;;;8.25;5.68;;;25.90;46.30;;;;;;6180864;28;82672;-68
2021/07/04 14:20:40;;;;;;;7.95;5.22;;;25.90;46.50;;;;;;6180085;28;81045;-67
2021/07/04 14:23:40;;;;;;;7.78;5.18;;;25.90;46.90;;;;;;6171284;28;81263;-66
2021/07/04 14:26:41;;;;;;;6.40;5.15;;;25.90;47.00;;;;;;6175461;28;80448;-66
2021/07/04 14:29:41;;;;;;;6.72;5.15;;;25.90;47.40;;;;;;6168469;28;84889;-67
2021/07/04 14:32:42;;;;;;;7.45;5.22;;;25.90;48.10;;;;;;6172261;28;80280;-67
2021/07/04 14:35:42;;;;;;;7.03;5.03;;;25.90;47.80;;;;;;6174354;28;80997;-67
2021/07/04 14:38:43;;;;;;;8.43;5.15;;;25.90;48.10;;;;;;6182618;28;80944;-66
2021/07/04 14:41:43;;;;;;;6.57;5.15;;;25.90;47.50;;;;;;6175222;28;80498;-66
2021/07/04 14:44:44;;;;;;;7.15;5.75;;;26.00;47.40;;;;;;6177812;28;80815;-67
2021/07/04 14:47:44;;;;;;;11.00;4.80;;;26.00;47.20;;;;;;6180770;28;82008;-65
2021/07/04 14:50:50;;;;;;;7.55;5.43;;;26.00;47.20;;;;;;6181189;28;81371;-66
2021/07/04 14:53:51;;;;;;;5.68;5.13;;;26.00;47.10;;;;;;6173574;28;81640;-67
2021/07/04 14:56:51;;;;;;;6.32;4.88;;;26.00;47.10;;;;;;6173107;28;81227;-66
2021/07/04 14:59:52;;;;;;;25.75;6.28;;;26.00;47.20;;;;;;6175751;28;82154;-65
2021/07/04 15:02:53;;;;;;;6.80;5.25;;;26.00;47.50;;;;;;6170976;28;81608;-65
2021/07/04 15:05:53;;;;;;;8.65;4.32;;;25.90;47.50;;;;;;6171860;28;81395;-66
2021/07/04 15:08:54;;;;;;;7.32;4.95;;;26.00;48.30;;;;;;6174513;28;83147;-65
2021/07/04 15:11:54;;;;;;;8.48;5.80;;;26.00;48.60;;;;;;6167522;28;83384;-66
2021/07/04 15:14:55;;;;;;;10.00;4.95;;;26.00;49.30;;;;;;6158141;28;81703;-66
2021/07/04 15:17:55;;;;;;;6.85;5.10;;;26.00;49.00;;;;;;6171335;28;81593;-66
2021/07/04 15:20:56;;;;;;;6.53;5.50;;;26.00;49.10;;;;;;6177923;28;80393;-65
2021/07/04 15:23:56;;;;;;;10.40;5.57;;;26.00;49.00;;;;;;6173717;28;80873;-66
2021/07/04 15:26:57;;;;;;;8.77;5.68;;;26.00;49.30;;;;;;6171894;28;80568;-66
2021/07/04 15:29:57;;;;;;;9.65;5.57;;;25.90;49.30;;;;;;6178025;28;80611;-66